sensor_id;sensor_type;location;lat;lon;timestamp;P1;durP1;ratioP1;P2;durP2;ratioP2
48897;SDS011;34713;50.038;20.000;2022-09-09T00:03:53;5.22;;;3.70;;
48897;SDS011;34713;50.038;20.000;2022-09-09T00:06:44;4.10;;;3.70;;
48897;SDS011;34713;50.038;20.000;2022-09-09T00:09:53;4.17;;;3.65;;
48897;SDS011;34713;50.038;20.000;2022-09-09T00:12:24;4.08;;;3.58;;
48897;SDS011;34713;50.038;20.000;2022-09-09T00:15:07;5.08;;;3.70;;
48897;SDS011;34713;50.038;20.000;2022-09-09T00:20:52;5.75;;;3.77;;
48897;SDS011;34713;50.038;20.000;2022-09-09T00:26:09;5.62;;;3.87;;
48897;SDS011;34713;50.038;20.000;2022-09-09T00:29:09;5.92;;;4.28;;
48897;SDS011;34713;50.038;20.000;2022-09-09T00:31:39;5.45;;;4.37;;
48897;SDS011;34713;50.038;20.000;2022-09-09T00:34:09;4.62;;;3.95;;
48897;SDS011;34713;50.038;20.000;2022-09-09T00:36:49;5.87;;;4.45;;
48897;SDS011;34713;50.038;20.000;2022-09-09T00:44:54;5.08;;;4.58;;
48897;SDS011;34713;50.038;20.000;2022-09-09T00:50:26;4.78;;;4.25;;
48897;SDS011;34713;50.038;20.000;2022-09-09T00:55:52;5.65;;;4.60;;
48897;SDS011;34713;50.038;20.000;2022-09-09T00:58:32;5.47;;;4.40;;
48897;SDS011;34713;50.038;20.000;2022-09-09T01:01:05;5.50;;;4.92;;
48897;SDS011;34713;50.038;20.000;2022-09-09T01:20:17;7.87;;;5.58;;
48897;SDS011;34713;50.038;20.000;2022-09-09T01:22:35;6.72;;;5.37;;
48897;SDS011;34713;50.038;20.000;2022-09-09T01:27:50;6.97;;;5.58;;
48897;SDS011;34713;50.038;20.000;2022-09-09T01:30:17;5.58;;;4.85;;
48897;SDS011;34713;50.038;20.000;2022-09-09T01:32:48;8.10;;;5.85;;
48897;SDS011;34713;50.038;20.000;2022-09-09T01:35:35;5.47;;;4.58;;
48897;SDS011;34713;50.038;20.000;2022-09-09T01:38:29;7.72;;;5.03;;
48897;SDS011;34713;50.038;20.000;2022-09-09T01:40:58;5.95;;;4.67;;
48897;SDS011;34713;50.038;20.000;2022-09-09T01:43:24;4.95;;;4.35;;
48897;SDS011;34713;50.038;20.000;2022-09-09T01:45:53;6.65;;;5.15;;
48897;SDS011;34713;50.038;20.000;2022-09-09T01:48:21;6.87;;;4.75;;
48897;SDS011;34713;50.038;20.000;2022-09-09T01:50:49;7.80;;;4.87;;
48897;SDS011;34713;50.038;20.000;2022-09-09T01:53:17;5.37;;;4.35;;
48897;SDS011;34713;50.038;20.000;2022-09-09T01:55:54;5.30;;;4.42;;
48897;SDS011;34713;50.038;20.000;2022-09-09T02:01:16;7.03;;;3.80;;
48897;SDS011;34713;50.038;20.000;2022-09-09T02:03:47;9.40;;;4.30;;
48897;SDS011;34713;50.038;20.000;2022-09-09T02:08:53;5.47;;;3.62;;
48897;SDS011;34713;50.038;20.000;2022-09-09T02:11:25;5.47;;;4.55;;
48897;SDS011;34713;50.038;20.000;2022-09-09T02:13:55;5.05;;;4.22;;
48897;SDS011;34713;50.038;20.000;2022-09-09T02:16:38;5.50;;;3.90;;
48897;SDS011;34713;50.038;20.000;2022-09-09T02:19:24;5.30;;;4.40;;
48897;SDS011;34713;50.038;20.000;2022-09-09T02:21:57;6.05;;;4.53;;
48897;SDS011;34713;50.038;20.000;2022-09-09T02:24:26;7.35;;;5.35;;
48897;SDS011;34713;50.038;20.000;2022-09-09T02:26:55;5.60;;;3.95;;
48897;SDS011;34713;50.038;20.000;2022-09-09T02:29:28;4.95;;;4.35;;
48897;SDS011;34713;50.038;20.000;2022-09-09T02:31:58;7.17;;;4.90;;
48897;SDS011;34713;50.038;20.000;2022-09-09T02:34:28;6.42;;;4.25;;
48897;SDS011;34713;50.038;20.000;2022-09-09T02:36:57;5.35;;;4.45;;
48897;SDS011;34713;50.038;20.000;2022-09-09T02:39:24;4.95;;;4.15;;
48897;SDS011;34713;50.038;20.000;2022-09-09T02:41:50;6.05;;;4.83;;
48897;SDS011;34713;50.038;20.000;2022-09-09T02:44:17;6.45;;;5.10;;
48897;SDS011;34713;50.038;20.000;2022-09-09T02:52:18;7.72;;;4.83;;
48897;SDS011;34713;50.038;20.000;2022-09-09T02:54:49;7.00;;;5.70;;
48897;SDS011;34713;50.038;20.000;2022-09-09T02:57:23;8.98;;;5.90;;
48897;SDS011;34713;50.038;20.000;2022-09-09T02:59:53;6.30;;;5.70;;
48897;SDS011;34713;50.038;20.000;2022-09-09T03:02:20;8.68;;;5.33;;
48897;SDS011;34713;50.038;20.000;2022-09-09T03:04:46;7.90;;;5.53;;
48897;SDS011;34713;50.038;20.000;2022-09-09T03:07:14;5.87;;;5.20;;
48897;SDS011;34713;50.038;20.000;2022-09-09T03:09:40;8.83;;;6.00;;
48897;SDS011;34713;50.038;20.000;2022-09-09T03:12:07;6.15;;;5.55;;
48897;SDS011;34713;50.038;20.000;2022-09-09T03:14:32;8.95;;;5.25;;
48897;SDS011;34713;50.038;20.000;2022-09-09T03:16:58;7.75;;;5.53;;
48897;SDS011;34713;50.038;20.000;2022-09-09T03:19:26;6.22;;;5.60;;
48897;SDS011;34713;50.038;20.000;2022-09-09T03:21:53;6.55;;;5.80;;
48897;SDS011;34713;50.038;20.000;2022-09-09T03:24:19;8.03;;;6.75;;
48897;SDS011;34713;50.038;20.000;2022-09-09T03:26:45;6.75;;;5.75;;
48897;SDS011;34713;50.038;20.000;2022-09-09T03:29:12;6.60;;;6.00;;
48897;SDS011;34713;50.038;20.000;2022-09-09T03:31:38;8.40;;;6.65;;
48897;SDS011;34713;50.038;20.000;2022-09-09T03:34:04;9.43;;;6.70;;
48897;SDS011;34713;50.038;20.000;2022-09-09T03:36:30;9.20;;;6.67;;
48897;SDS011;34713;50.038;20.000;2022-09-09T03:38:56;7.15;;;6.45;;
48897;SDS011;34713;50.038;20.000;2022-09-09T03:41:23;10.60;;;7.45;;
48897;SDS011;34713;50.038;20.000;2022-09-09T03:43:54;10.70;;;7.58;;
48897;SDS011;34713;50.038;20.000;2022-09-09T03:46:20;8.13;;;6.78;;
48897;SDS011;34713;50.038;20.000;2022-09-09T03:48:47;8.10;;;7.12;;
48897;SDS011;34713;50.038;20.000;2022-09-09T03:51:13;8.50;;;6.47;;
48897;SDS011;34713;50.038;20.000;2022-09-09T03:53:40;8.28;;;7.12;;
48897;SDS011;34713;50.038;20.000;2022-09-09T03:56:06;7.15;;;6.20;;
48897;SDS011;34713;50.038;20.000;2022-09-09T03:58:32;7.53;;;5.67;;
48897;SDS011;34713;50.038;20.000;2022-09-09T04:01:00;8.08;;;6.05;;
48897;SDS011;34713;50.038;20.000;2022-09-09T04:03:33;7.67;;;5.25;;
48897;SDS011;34713;50.038;20.000;2022-09-09T04:06:00;6.25;;;5.05;;
48897;SDS011;34713;50.038;20.000;2022-09-09T04:08:29;6.37;;;5.00;;
48897;SDS011;34713;50.038;20.000;2022-09-09T04:10:59;5.78;;;4.67;;
48897;SDS011;34713;50.038;20.000;2022-09-09T04:13:26;8.10;;;4.95;;
48897;SDS011;34713;50.038;20.000;2022-09-09T04:15:53;5.87;;;4.10;;
48897;SDS011;34713;50.038;20.000;2022-09-09T04:18:21;7.37;;;4.15;;
48897;SDS011;34713;50.038;20.000;2022-09-09T04:20:48;5.53;;;4.50;;
48897;SDS011;34713;50.038;20.000;2022-09-09T04:23:15;7.12;;;4.28;;
48897;SDS011;34713;50.038;20.000;2022-09-09T04:25:48;6.83;;;4.30;;
48897;SDS011;34713;50.038;20.000;2022-09-09T04:28:14;10.63;;;3.75;;
48897;SDS011;34713;50.038;20.000;2022-09-09T04:30:42;9.13;;;4.03;;
48897;SDS011;34713;50.038;20.000;2022-09-09T04:33:10;9.30;;;4.35;;
48897;SDS011;34713;50.038;20.000;2022-09-09T04:35:37;5.12;;;3.62;;
48897;SDS011;34713;50.038;20.000;2022-09-09T04:38:04;4.67;;;3.50;;
48897;SDS011;34713;50.038;20.000;2022-09-09T04:40:32;5.10;;;3.98;;
48897;SDS011;34713;50.038;20.000;2022-09-09T04:42:59;6.92;;;3.62;;
48897;SDS011;34713;50.038;20.000;2022-09-09T04:45:26;6.40;;;4.87;;
48897;SDS011;34713;50.038;20.000;2022-09-09T04:47:52;7.90;;;4.20;;
48897;SDS011;34713;50.038;20.000;2022-09-09T04:50:19;8.38;;;4.22;;
48897;SDS011;34713;50.038;20.000;2022-09-09T04:52:45;6.58;;;4.37;;
48897;SDS011;34713;50.038;20.000;2022-09-09T04:55:11;8.98;;;3.95;;
48897;SDS011;34713;50.038;20.000;2022-09-09T04:57:38;11.45;;;4.03;;
48897;SDS011;34713;50.038;20.000;2022-09-09T05:00:05;7.40;;;4.30;;
48897;SDS011;34713;50.038;20.000;2022-09-09T05:02:36;7.87;;;3.98;;
48897;SDS011;34713;50.038;20.000;2022-09-09T05:05:04;6.75;;;3.67;;
48897;SDS011;34713;50.038;20.000;2022-09-09T05:07:31;4.58;;;3.80;;
48897;SDS011;34713;50.038;20.000;2022-09-09T05:09:57;4.87;;;3.60;;
48897;SDS011;34713;50.038;20.000;2022-09-09T05:12:23;5.92;;;4.05;;
48897;SDS011;34713;50.038;20.000;2022-09-09T05:14:51;6.17;;;3.65;;
48897;SDS011;34713;50.038;20.000;2022-09-09T05:17:17;8.18;;;3.30;;
48897;SDS011;34713;50.038;20.000;2022-09-09T05:19:43;4.17;;;3.05;;
48897;SDS011;34713;50.038;20.000;2022-09-09T05:22:10;5.40;;;3.77;;
48897;SDS011;34713;50.038;20.000;2022-09-09T05:24:37;7.10;;;3.92;;
48897;SDS011;34713;50.038;20.000;2022-09-09T05:27:03;4.75;;;3.30;;
48897;SDS011;34713;50.038;20.000;2022-09-09T05:29:33;7.67;;;4.10;;
48897;SDS011;34713;50.038;20.000;2022-09-09T05:31:59;6.67;;;3.35;;
48897;SDS011;34713;50.038;20.000;2022-09-09T05:34:25;5.28;;;3.55;;
48897;SDS011;34713;50.038;20.000;2022-09-09T05:36:50;8.28;;;3.08;;
48897;SDS011;34713;50.038;20.000;2022-09-09T05:39:17;4.10;;;2.87;;
48897;SDS011;34713;50.038;20.000;2022-09-09T05:41:43;4.00;;;3.20;;
48897;SDS011;34713;50.038;20.000;2022-09-09T05:44:09;6.62;;;4.05;;
48897;SDS011;34713;50.038;20.000;2022-09-09T05:46:35;3.90;;;3.20;;
48897;SDS011;34713;50.038;20.000;2022-09-09T05:49:01;5.70;;;2.98;;
48897;SDS011;34713;50.038;20.000;2022-09-09T05:51:28;5.85;;;3.70;;
48897;SDS011;34713;50.038;20.000;2022-09-09T05:53:57;6.45;;;3.92;;
48897;SDS011;34713;50.038;20.000;2022-09-09T05:56:26;6.03;;;3.60;;
48897;SDS011;34713;50.038;20.000;2022-09-09T05:58:54;6.17;;;3.35;;
48897;SDS011;34713;50.038;20.000;2022-09-09T06:01:25;5.80;;;3.90;;
48897;SDS011;34713;50.038;20.000;2022-09-09T06:03:56;8.23;;;4.08;;
48897;SDS011;34713;50.038;20.000;2022-09-09T06:06:24;4.37;;;3.62;;
48897;SDS011;34713;50.038;20.000;2022-09-09T06:09:02;5.53;;;3.55;;
48897;SDS011;34713;50.038;20.000;2022-09-09T06:11:35;9.43;;;4.40;;
48897;SDS011;34713;50.038;20.000;2022-09-09T06:14:04;6.00;;;4.60;;
48897;SDS011;34713;50.038;20.000;2022-09-09T06:16:31;6.85;;;4.35;;
48897;SDS011;34713;50.038;20.000;2022-09-09T06:18:58;9.75;;;4.67;;
48897;SDS011;34713;50.038;20.000;2022-09-09T06:21:25;6.75;;;3.90;;
48897;SDS011;34713;50.038;20.000;2022-09-09T06:23:55;4.97;;;3.75;;
48897;SDS011;34713;50.038;20.000;2022-09-09T06:26:32;4.40;;;3.33;;
48897;SDS011;34713;50.038;20.000;2022-09-09T06:28:58;5.83;;;4.00;;
48897;SDS011;34713;50.038;20.000;2022-09-09T06:31:25;7.15;;;3.60;;
48897;SDS011;34713;50.038;20.000;2022-09-09T06:33:55;4.67;;;3.52;;
48897;SDS011;34713;50.038;20.000;2022-09-09T06:36:24;4.22;;;2.98;;
48897;SDS011;34713;50.038;20.000;2022-09-09T06:38:52;5.22;;;4.00;;
48897;SDS011;34713;50.038;20.000;2022-09-09T06:41:19;7.85;;;3.60;;
48897;SDS011;34713;50.038;20.000;2022-09-09T06:43:48;4.35;;;3.10;;
48897;SDS011;34713;50.038;20.000;2022-09-09T06:46:15;5.97;;;3.52;;
48897;SDS011;34713;50.038;20.000;2022-09-09T06:48:47;4.28;;;3.40;;
48897;SDS011;34713;50.038;20.000;2022-09-09T06:51:14;4.03;;;3.10;;
48897;SDS011;34713;50.038;20.000;2022-09-09T06:53:45;6.85;;;3.27;;
48897;SDS011;34713;50.038;20.000;2022-09-09T06:56:25;2.80;;;2.30;;
48897;SDS011;34713;50.038;20.000;2022-09-09T06:58:59;6.22;;;2.67;;
48897;SDS011;34713;50.038;20.000;2022-09-09T07:01:36;5.30;;;3.50;;
48897;SDS011;34713;50.038;20.000;2022-09-09T07:04:05;5.83;;;2.60;;
48897;SDS011;34713;50.038;20.000;2022-09-09T07:06:34;5.37;;;2.75;;
48897;SDS011;34713;50.038;20.000;2022-09-09T07:09:03;3.62;;;2.75;;
48897;SDS011;34713;50.038;20.000;2022-09-09T07:11:34;5.65;;;2.92;;
48897;SDS011;34713;50.038;20.000;2022-09-09T07:14:09;5.70;;;2.58;;
48897;SDS011;34713;50.038;20.000;2022-09-09T07:16:39;4.17;;;2.77;;
48897;SDS011;34713;50.038;20.000;2022-09-09T07:19:07;6.12;;;2.70;;
48897;SDS011;34713;50.038;20.000;2022-09-09T07:21:33;3.35;;;2.45;;
48897;SDS011;34713;50.038;20.000;2022-09-09T07:23:59;3.95;;;2.90;;
48897;SDS011;34713;50.038;20.000;2022-09-09T07:26:26;4.00;;;2.35;;
48897;SDS011;34713;50.038;20.000;2022-09-09T07:28:55;3.65;;;2.22;;
48897;SDS011;34713;50.038;20.000;2022-09-09T07:31:27;4.80;;;2.22;;
48897;SDS011;34713;50.038;20.000;2022-09-09T07:33:56;4.72;;;2.05;;
48897;SDS011;34713;50.038;20.000;2022-09-09T07:36:29;4.35;;;2.08;;
48897;SDS011;34713;50.038;20.000;2022-09-09T07:39:02;3.20;;;1.67;;
48897;SDS011;34713;50.038;20.000;2022-09-09T07:41:36;2.58;;;1.85;;
48897;SDS011;34713;50.038;20.000;2022-09-09T07:44:11;5.15;;;1.87;;
48897;SDS011;34713;50.038;20.000;2022-09-09T07:46:41;3.30;;;1.95;;
48897;SDS011;34713;50.038;20.000;2022-09-09T07:49:09;3.15;;;1.87;;
48897;SDS011;34713;50.038;20.000;2022-09-09T07:51:37;3.27;;;2.00;;
48897;SDS011;34713;50.038;20.000;2022-09-09T07:54:09;4.17;;;2.17;;
48897;SDS011;34713;50.038;20.000;2022-09-09T07:56:38;3.17;;;2.08;;
48897;SDS011;34713;50.038;20.000;2022-09-09T07:59:08;4.20;;;2.05;;
48897;SDS011;34713;50.038;20.000;2022-09-09T08:01:36;2.92;;;1.95;;
48897;SDS011;34713;50.038;20.000;2022-09-09T08:04:09;4.55;;;1.80;;
48897;SDS011;34713;50.038;20.000;2022-09-09T08:06:40;2.10;;;1.10;;
48897;SDS011;34713;50.038;20.000;2022-09-09T08:09:09;2.42;;;2.00;;
48897;SDS011;34713;50.038;20.000;2022-09-09T08:11:35;3.00;;;1.82;;
48897;SDS011;34713;50.038;20.000;2022-09-09T08:14:02;3.90;;;1.32;;
48897;SDS011;34713;50.038;20.000;2022-09-09T08:16:30;3.33;;;1.32;;
48897;SDS011;34713;50.038;20.000;2022-09-09T08:18:58;4.80;;;1.45;;
48897;SDS011;34713;50.038;20.000;2022-09-09T08:21:29;4.37;;;1.70;;
48897;SDS011;34713;50.038;20.000;2022-09-09T08:23:57;3.25;;;1.25;;
48897;SDS011;34713;50.038;20.000;2022-09-09T08:26:26;4.42;;;1.47;;
48897;SDS011;34713;50.038;20.000;2022-09-09T08:28:58;1.85;;;1.22;;
48897;SDS011;34713;50.038;20.000;2022-09-09T08:31:29;2.05;;;1.07;;
48897;SDS011;34713;50.038;20.000;2022-09-09T08:33:58;5.00;;;1.80;;
48897;SDS011;34713;50.038;20.000;2022-09-09T08:36:27;2.25;;;1.40;;
48897;SDS011;34713;50.038;20.000;2022-09-09T08:38:55;4.03;;;1.57;;
48897;SDS011;34713;50.038;20.000;2022-09-09T08:44:10;4.42;;;1.70;;
48897;SDS011;34713;50.038;20.000;2022-09-09T08:50:06;5.12;;;1.20;;
48897;SDS011;34713;50.038;20.000;2022-09-09T08:58:23;1.92;;;1.00;;
48897;SDS011;34713;50.038;20.000;2022-09-09T09:09:25;1.67;;;1.07;;
48897;SDS011;34713;50.038;20.000;2022-09-09T09:12:15;3.75;;;1.10;;
48897;SDS011;34713;50.038;20.000;2022-09-09T09:14:46;2.35;;;1.20;;
48897;SDS011;34713;50.038;20.000;2022-09-09T09:17:14;3.50;;;1.20;;
48897;SDS011;34713;50.038;20.000;2022-09-09T09:19:44;4.55;;;1.20;;
48897;SDS011;34713;50.038;20.000;2022-09-09T09:22:26;3.05;;;1.00;;
48897;SDS011;34713;50.038;20.000;2022-09-09T09:25:17;3.25;;;1.17;;
48897;SDS011;34713;50.038;20.000;2022-09-09T09:30:29;2.20;;;1.10;;
48897;SDS011;34713;50.038;20.000;2022-09-09T09:33:26;1.62;;;0.93;;
48897;SDS011;34713;50.038;20.000;2022-09-09T09:36:02;1.98;;;0.93;;
48897;SDS011;34713;50.038;20.000;2022-09-09T09:38:28;1.42;;;1.10;;
48897;SDS011;34713;50.038;20.000;2022-09-09T09:40:55;2.45;;;0.90;;
48897;SDS011;34713;50.038;20.000;2022-09-09T09:43:30;1.57;;;0.78;;
48897;SDS011;34713;50.038;20.000;2022-09-09T09:45:59;2.45;;;0.82;;
48897;SDS011;34713;50.038;20.000;2022-09-09T09:48:26;3.47;;;0.72;;
48897;SDS011;34713;50.038;20.000;2022-09-09T09:50:56;1.40;;;0.80;;
48897;SDS011;34713;50.038;20.000;2022-09-09T09:53:31;1.80;;;0.90;;
48897;SDS011;34713;50.038;20.000;2022-09-09T09:56:03;2.35;;;0.98;;
48897;SDS011;34713;50.038;20.000;2022-09-09T09:58:33;1.00;;;0.60;;
48897;SDS011;34713;50.038;20.000;2022-09-09T10:01:21;3.30;;;0.78;;
48897;SDS011;34713;50.038;20.000;2022-09-09T10:04:12;1.47;;;0.80;;
48897;SDS011;34713;50.038;20.000;2022-09-09T10:06:46;3.33;;;0.80;;
48897;SDS011;34713;50.038;20.000;2022-09-09T10:09:29;1.25;;;0.75;;
48897;SDS011;34713;50.038;20.000;2022-09-09T10:24:24;2.35;;;0.98;;
48897;SDS011;34713;50.038;20.000;2022-09-09T10:29:51;1.62;;;0.70;;
48897;SDS011;34713;50.038;20.000;2022-09-09T10:32:48;1.25;;;0.80;;
48897;SDS011;34713;50.038;20.000;2022-09-09T10:35:47;3.58;;;0.80;;
48897;SDS011;34713;50.038;20.000;2022-09-09T10:38:20;2.00;;;0.93;;
48897;SDS011;34713;50.038;20.000;2022-09-09T10:52:04;2.42;;;0.88;;
48897;SDS011;34713;50.038;20.000;2022-09-09T10:57:39;1.52;;;0.68;;
48897;SDS011;34713;50.038;20.000;2022-09-09T11:02:51;1.40;;;0.60;;
48897;SDS011;34713;50.038;20.000;2022-09-09T11:05:28;1.45;;;0.60;;
48897;SDS011;34713;50.038;20.000;2022-09-09T11:08:00;1.07;;;0.42;;
48897;SDS011;34713;50.038;20.000;2022-09-09T11:10:49;1.45;;;0.68;;
48897;SDS011;34713;50.038;20.000;2022-09-09T11:25:05;1.15;;;0.60;;
48897;SDS011;34713;50.038;20.000;2022-09-09T11:39:38;2.58;;;1.00;;
48897;SDS011;34713;50.038;20.000;2022-09-09T11:44:45;2.37;;;0.70;;
48897;SDS011;34713;50.038;20.000;2022-09-09T11:47:26;5.78;;;0.88;;
48897;SDS011;34713;50.038;20.000;2022-09-09T11:52:44;2.33;;;0.57;;
48897;SDS011;34713;50.038;20.000;2022-09-09T12:00:48;0.82;;;0.50;;
48897;SDS011;34713;50.038;20.000;2022-09-09T12:06:17;2.25;;;0.55;;
48897;SDS011;34713;50.038;20.000;2022-09-09T12:09:07;0.57;;;0.50;;
48897;SDS011;34713;50.038;20.000;2022-09-09T12:11:37;1.17;;;0.60;;
48897;SDS011;34713;50.038;20.000;2022-09-09T12:14:03;4.53;;;1.00;;
48897;SDS011;34713;50.038;20.000;2022-09-09T12:16:30;1.85;;;0.78;;
48897;SDS011;34713;50.038;20.000;2022-09-09T12:19:03;1.53;;;0.80;;
48897;SDS011;34713;50.038;20.000;2022-09-09T12:24:31;2.87;;;1.00;;
48897;SDS011;34713;50.038;20.000;2022-09-09T12:32:37;2.15;;;0.82;;
48897;SDS011;34713;50.038;20.000;2022-09-09T12:35:26;2.37;;;0.80;;
48897;SDS011;34713;50.038;20.000;2022-09-09T12:40:26;1.52;;;0.80;;
48897;SDS011;34713;50.038;20.000;2022-09-09T12:42:52;0.93;;;0.60;;
48897;SDS011;34713;50.038;20.000;2022-09-09T12:45:20;1.77;;;0.42;;
48897;SDS011;34713;50.038;20.000;2022-09-09T12:47:57;1.02;;;0.55;;
48897;SDS011;34713;50.038;20.000;2022-09-09T12:50:36;1.65;;;0.68;;
48897;SDS011;34713;50.038;20.000;2022-09-09T12:53:02;2.35;;;0.62;;
48897;SDS011;34713;50.038;20.000;2022-09-09T12:55:32;1.12;;;0.50;;
48897;SDS011;34713;50.038;20.000;2022-09-09T12:58:03;1.35;;;0.60;;
48897;SDS011;34713;50.038;20.000;2022-09-09T13:00:31;2.55;;;0.50;;
48897;SDS011;34713;50.038;20.000;2022-09-09T13:03:00;1.10;;;0.53;;
48897;SDS011;34713;50.038;20.000;2022-09-09T13:05:33;1.00;;;0.55;;
48897;SDS011;34713;50.038;20.000;2022-09-09T13:08:06;1.10;;;0.50;;
48897;SDS011;34713;50.038;20.000;2022-09-09T13:10:36;1.32;;;0.65;;
48897;SDS011;34713;50.038;20.000;2022-09-09T13:13:13;2.83;;;0.57;;
48897;SDS011;34713;50.038;20.000;2022-09-09T13:15:49;1.40;;;0.60;;
48897;SDS011;34713;50.038;20.000;2022-09-09T13:18:24;0.90;;;0.50;;
48897;SDS011;34713;50.038;20.000;2022-09-09T13:20:54;1.55;;;0.50;;
48897;SDS011;34713;50.038;20.000;2022-09-09T13:23:21;2.85;;;0.60;;
48897;SDS011;34713;50.038;20.000;2022-09-09T13:25:58;2.67;;;0.75;;
48897;SDS011;34713;50.038;20.000;2022-09-09T13:28:34;1.87;;;0.50;;
48897;SDS011;34713;50.038;20.000;2022-09-09T13:31:04;2.67;;;0.78;;
48897;SDS011;34713;50.038;20.000;2022-09-09T13:33:36;2.27;;;0.65;;
48897;SDS011;34713;50.038;20.000;2022-09-09T13:36:04;0.98;;;0.40;;
48897;SDS011;34713;50.038;20.000;2022-09-09T13:38:52;1.10;;;0.60;;
48897;SDS011;34713;50.038;20.000;2022-09-09T13:41:08;1.55;;;0.80;;
48897;SDS011;34713;50.038;20.000;2022-09-09T13:43:36;4.08;;;0.98;;
48897;SDS011;34713;50.038;20.000;2022-09-09T13:46:25;2.55;;;0.60;;
48897;SDS011;34713;50.038;20.000;2022-09-09T13:51:39;1.62;;;0.50;;
48897;SDS011;34713;50.038;20.000;2022-09-09T13:54:19;0.78;;;0.50;;
48897;SDS011;34713;50.038;20.000;2022-09-09T13:56:46;0.72;;;0.57;;
48897;SDS011;34713;50.038;20.000;2022-09-09T13:59:15;2.37;;;0.70;;
48897;SDS011;34713;50.038;20.000;2022-09-09T14:01:45;1.52;;;0.78;;
48897;SDS011;34713;50.038;20.000;2022-09-09T14:04:11;1.67;;;0.50;;
48897;SDS011;34713;50.038;20.000;2022-09-09T14:06:38;2.17;;;0.70;;
48897;SDS011;34713;50.038;20.000;2022-09-09T14:09:05;0.98;;;0.50;;
48897;SDS011;34713;50.038;20.000;2022-09-09T14:11:32;2.02;;;0.60;;
48897;SDS011;34713;50.038;20.000;2022-09-09T14:13:58;0.72;;;0.55;;
48897;SDS011;34713;50.038;20.000;2022-09-09T14:16:23;1.30;;;0.50;;
48897;SDS011;34713;50.038;20.000;2022-09-09T14:18:51;0.78;;;0.68;;
48897;SDS011;34713;50.038;20.000;2022-09-09T14:21:17;1.70;;;0.70;;
48897;SDS011;34713;50.038;20.000;2022-09-09T14:23:43;1.70;;;0.70;;
48897;SDS011;34713;50.038;20.000;2022-09-09T14:26:09;0.88;;;0.60;;
48897;SDS011;34713;50.038;20.000;2022-09-09T14:28:35;5.72;;;0.80;;
48897;SDS011;34713;50.038;20.000;2022-09-09T14:31:02;1.52;;;0.70;;
48897;SDS011;34713;50.038;20.000;2022-09-09T14:33:30;0.80;;;0.50;;
48897;SDS011;34713;50.038;20.000;2022-09-09T14:36:01;2.67;;;0.50;;
48897;SDS011;34713;50.038;20.000;2022-09-09T14:38:29;4.17;;;1.17;;
48897;SDS011;34713;50.038;20.000;2022-09-09T14:40:59;1.92;;;0.90;;
48897;SDS011;34713;50.038;20.000;2022-09-09T14:43:27;2.17;;;1.10;;
48897;SDS011;34713;50.038;20.000;2022-09-09T14:45:53;3.45;;;1.20;;
48897;SDS011;34713;50.038;20.000;2022-09-09T14:48:19;4.65;;;1.37;;
48897;SDS011;34713;50.038;20.000;2022-09-09T14:50:44;3.70;;;1.00;;
48897;SDS011;34713;50.038;20.000;2022-09-09T14:53:10;5.35;;;1.10;;
48897;SDS011;34713;50.038;20.000;2022-09-09T14:55:36;2.27;;;1.10;;
48897;SDS011;34713;50.038;20.000;2022-09-09T14:58:03;2.98;;;1.45;;
48897;SDS011;34713;50.038;20.000;2022-09-09T15:00:30;4.05;;;1.10;;
48897;SDS011;34713;50.038;20.000;2022-09-09T15:02:56;4.42;;;1.20;;
48897;SDS011;34713;50.038;20.000;2022-09-09T15:05:22;4.58;;;1.32;;
48897;SDS011;34713;50.038;20.000;2022-09-09T15:07:49;4.25;;;1.37;;
48897;SDS011;34713;50.038;20.000;2022-09-09T15:10:15;1.72;;;0.82;;
48897;SDS011;34713;50.038;20.000;2022-09-09T15:12:42;2.52;;;1.10;;
48897;SDS011;34713;50.038;20.000;2022-09-09T15:15:09;1.82;;;1.17;;
48897;SDS011;34713;50.038;20.000;2022-09-09T15:17:35;3.12;;;1.00;;
48897;SDS011;34713;50.038;20.000;2022-09-09T15:20:02;2.22;;;0.98;;
48897;SDS011;34713;50.038;20.000;2022-09-09T15:22:30;2.30;;;0.88;;
48897;SDS011;34713;50.038;20.000;2022-09-09T15:24:57;2.85;;;0.80;;
48897;SDS011;34713;50.038;20.000;2022-09-09T15:27:23;4.78;;;1.07;;
48897;SDS011;34713;50.038;20.000;2022-09-09T15:29:49;2.40;;;0.82;;
48897;SDS011;34713;50.038;20.000;2022-09-09T15:32:17;2.80;;;0.82;;
48897;SDS011;34713;50.038;20.000;2022-09-09T15:34:43;2.87;;;0.93;;
48897;SDS011;34713;50.038;20.000;2022-09-09T15:37:10;2.20;;;0.70;;
48897;SDS011;34713;50.038;20.000;2022-09-09T15:39:39;4.10;;;0.88;;
48897;SDS011;34713;50.038;20.000;2022-09-09T15:42:06;2.87;;;0.95;;
48897;SDS011;34713;50.038;20.000;2022-09-09T15:44:42;2.27;;;1.00;;
48897;SDS011;34713;50.038;20.000;2022-09-09T15:47:10;2.05;;;1.07;;
48897;SDS011;34713;50.038;20.000;2022-09-09T15:49:38;1.98;;;0.95;;
48897;SDS011;34713;50.038;20.000;2022-09-09T15:52:04;4.55;;;1.22;;
48897;SDS011;34713;50.038;20.000;2022-09-09T15:54:31;2.20;;;1.22;;
48897;SDS011;34713;50.038;20.000;2022-09-09T15:57:00;1.85;;;1.10;;
48897;SDS011;34713;50.038;20.000;2022-09-09T15:59:29;1.62;;;0.90;;
48897;SDS011;34713;50.038;20.000;2022-09-09T16:01:57;2.85;;;1.30;;
48897;SDS011;34713;50.038;20.000;2022-09-09T16:04:25;2.77;;;1.10;;
48897;SDS011;34713;50.038;20.000;2022-09-09T16:06:52;3.52;;;1.20;;
48897;SDS011;34713;50.038;20.000;2022-09-09T16:09:22;2.47;;;1.00;;
48897;SDS011;34713;50.038;20.000;2022-09-09T16:11:48;3.83;;;1.20;;
48897;SDS011;34713;50.038;20.000;2022-09-09T16:14:14;4.33;;;1.37;;
48897;SDS011;34713;50.038;20.000;2022-09-09T16:16:41;2.62;;;1.22;;
48897;SDS011;34713;50.038;20.000;2022-09-09T16:19:08;4.00;;;1.50;;
48897;SDS011;34713;50.038;20.000;2022-09-09T16:21:42;3.83;;;1.30;;
48897;SDS011;34713;50.038;20.000;2022-09-09T16:24:08;3.47;;;1.47;;
48897;SDS011;34713;50.038;20.000;2022-09-09T16:26:37;3.75;;;1.30;;
48897;SDS011;34713;50.038;20.000;2022-09-09T16:29:06;3.37;;;1.80;;
48897;SDS011;34713;50.038;20.000;2022-09-09T16:31:32;3.50;;;1.70;;
48897;SDS011;34713;50.038;20.000;2022-09-09T16:33:58;7.20;;;2.20;;
48897;SDS011;34713;50.038;20.000;2022-09-09T16:36:25;2.70;;;1.60;;
48897;SDS011;34713;50.038;20.000;2022-09-09T16:38:53;4.75;;;2.27;;
48897;SDS011;34713;50.038;20.000;2022-09-09T16:41:20;7.90;;;2.10;;
48897;SDS011;34713;50.038;20.000;2022-09-09T16:43:47;3.75;;;1.82;;
48897;SDS011;34713;50.038;20.000;2022-09-09T16:46:18;2.45;;;1.50;;
48897;SDS011;34713;50.038;20.000;2022-09-09T16:48:45;5.35;;;2.02;;
48897;SDS011;34713;50.038;20.000;2022-09-09T16:51:22;3.33;;;1.85;;
48897;SDS011;34713;50.038;20.000;2022-09-09T16:54:01;3.83;;;1.82;;
48897;SDS011;34713;50.038;20.000;2022-09-09T16:56:30;3.45;;;2.10;;
48897;SDS011;34713;50.038;20.000;2022-09-09T16:59:00;3.47;;;1.80;;
48897;SDS011;34713;50.038;20.000;2022-09-09T17:01:29;3.12;;;1.87;;
48897;SDS011;34713;50.038;20.000;2022-09-09T17:03:58;3.70;;;2.05;;
48897;SDS011;34713;50.038;20.000;2022-09-09T17:06:28;6.08;;;2.15;;
48897;SDS011;34713;50.038;20.000;2022-09-09T17:09:00;5.35;;;2.35;;
48897;SDS011;34713;50.038;20.000;2022-09-09T17:11:26;6.12;;;2.02;;
48897;SDS011;34713;50.038;20.000;2022-09-09T17:13:53;6.53;;;2.08;;
48897;SDS011;34713;50.038;20.000;2022-09-09T17:16:21;9.63;;;2.58;;
48897;SDS011;34713;50.038;20.000;2022-09-09T17:18:49;7.10;;;2.00;;
48897;SDS011;34713;50.038;20.000;2022-09-09T17:21:18;5.85;;;2.08;;
48897;SDS011;34713;50.038;20.000;2022-09-09T17:23:47;5.37;;;2.30;;
48897;SDS011;34713;50.038;20.000;2022-09-09T17:26:16;4.67;;;2.50;;
48897;SDS011;34713;50.038;20.000;2022-09-09T17:28:44;3.92;;;2.08;;